Tremont, IL

4:51 PM CST on January 19, 2017 (GMT -0600)
Tazewell County EMA | | Change Station
Active Advisory: Dense Fog Advisory

Elev 650 ft 40.54 °N, 89.52 °W | Updated 2 seconds ago

Overcast
Overcast
41.1 °F
Feels Like 41 °F
N
0.0
Wind Variable Wind from North
Gusts 0.0 mph

Today
High -- | Low -- °F
--% Chance of Precip.
Yesterday
High -- | Low -- °F
Precip. -- in
Pressure 29.77 in
Visibility 1.8 miles
Clouds Overcast 800 ft
Windchill 41 °F
Dew Point 41 °F
Humidity 100%
Rainfall 0.05 in
Snow Depth Not available.
7:17 AM 5:00 PM
Waning Gibbous, 50% visible
SPECI KPIA 192247Z 08008KT 1 3/4SM BR OVC008 06/05 A2977 RMK AO2 RAB22E39 CIG 004V011 P0000 T00560050
Pressure 29.77 in
Visibility 1.8 miles
Clouds Overcast 800 ft
Windchill 41 °F
Dew Point 41 °F
Humidity 100%
Rainfall 0.05 in
Snow Depth Not available.
7:17 AM 5:00 PM
Waning Gibbous, 50% visible
SPECI KPIA 192247Z 08008KT 1 3/4SM BR OVC008 06/05 A2977 RMK AO2 RAB22E39 CIG 004V011 P0000 T00560050

Get Your Daily Forecast Email!

Thanks for signing up!

Be on the lookout for a verification email in your inbox.

You'll start receiving the daily forecast at 8 AM.

×

10-Day Weather Forecast

Almanac

Astronomy

Jan. 19, 2017 Rise Set
Actual Time
Civil Twilight
Nautical Twilight
Astronomical Twilight
Moon
Length of Visible Light
Length of Day
Tomorrow will be .
, % of the Moon is Illuminated

Today's Extremes

State Highs State Lows

Community

WunderPhotos

Upload Photos

1,962,540 photos uploaded!

WunderBlog® & News

Nearby

Air Quality

  Air Quality AQ Index Pollutant
Not available.

Snow Depth

Station Depth Elevation

Earthquake Activity

City Distance Mag. Time & Date
Minimum magnitude displayed is 2.5.

Coastal Water Temperatures

Place Temperature

Stations

Nearby Weather Stations

Station Location Temp. Windchill Dew Point Humidity Wind Precip. Elev Updated Type
                   

Watches & Warnings

Dense Fog Advisory
Issued: 3:08 PM CST Jan. 19, 2017 – National Weather Service

... Dense fog advisory in effect from 9 PM this evening to 9 am
CST Friday...

The National Weather Service in Lincoln has issued a dense fog
advisory... which is in effect from 9 PM this evening to 9 am CST
Friday.

* Visibility... localized areas will see visibility down to a
quarter mile this evening... with the dense fog becoming more
widespread after midnight. The fog should begin to lift around
mid morning Friday.

* Impacts... drivers should be prepared for rapidly changing
visibility. Be alert for slow moving traffic... especially Friday
morning during the commute to work or school.

Precautionary/preparedness actions...

A dense fog advisory means visibilities will frequently be
reduced to less than one quarter mile. If driving... slow down...
use your headlights... and leave plenty of distance ahead of you.



Geelhart